createdAt,value
2022-10-10T00:00:00.065Z,77.7
2022-10-10T00:01:02.972Z,77.3
2022-10-10T00:02:05.782Z,77.6
2022-10-10T00:03:08.660Z,77.6
2022-10-10T00:04:11.721Z,77.4
2022-10-10T00:05:14.638Z,77.6
2022-10-10T00:06:18.085Z,77.7
2022-10-10T00:07:20.883Z,77.7
2022-10-10T00:08:24.424Z,77.2
2022-10-10T00:09:27.879Z,77.3
2022-10-10T00:10:30.073Z,77.3
2022-10-10T00:11:33.303Z,77.3
2022-10-10T00:12:37.423Z,77.6
2022-10-10T00:13:40.282Z,77.3
2022-10-10T00:14:43.429Z,77.3
2022-10-10T00:15:50.378Z,77.6
2022-10-10T00:16:53.830Z,77.6
2022-10-10T00:17:56.259Z,77.5
2022-10-10T00:18:59.408Z,77.4
2022-10-10T00:20:02.210Z,77.6
2022-10-10T00:21:05.204Z,77.9
2022-10-10T00:22:08.062Z,77.6
2022-10-10T00:23:11.077Z,77.6
2022-10-10T00:24:13.863Z,77.9
2022-10-10T00:25:16.459Z,77.9
2022-10-10T00:26:20.635Z,77.8
2022-10-10T00:27:24.466Z,77.8
2022-10-10T00:28:29.396Z,77.9
2022-10-10T00:29:32.133Z,78.1
2022-10-10T00:30:35.267Z,78
2022-10-10T00:31:38.647Z,78.3
2022-10-10T00:32:42.156Z,78
2022-10-10T00:33:44.952Z,78.1
2022-10-10T00:34:47.751Z,78.2
2022-10-10T00:35:51.091Z,77.8
2022-10-10T00:36:54.545Z,78.1
2022-10-10T00:37:57.256Z,78.2
2022-10-10T00:39:00.880Z,78.5
2022-10-10T00:40:04.321Z,78.5
2022-10-10T00:41:07.389Z,78.5
2022-10-10T00:42:10.209Z,78.6
2022-10-10T00:43:14.048Z,78.5
2022-10-10T00:44:18.258Z,78.6
2022-10-10T00:45:21.051Z,78.4
2022-10-10T00:46:23.852Z,78.6
2022-10-10T00:47:27.360Z,78.5
2022-10-10T00:48:30.234Z,78.3
2022-10-10T00:49:33.034Z,78.5
2022-10-10T00:50:35.754Z,78.7
2022-10-10T00:51:38.838Z,78.7
2022-10-10T00:52:41.909Z,78.8
2022-10-10T00:53:45.520Z,78.6
2022-10-10T00:54:48.787Z,78.7
2022-10-10T00:55:52.241Z,78.3
2022-10-10T00:56:55.072Z,78.5
2022-10-10T00:57:58.736Z,78.7
2022-10-10T00:59:02.185Z,78.6
2022-10-10T01:00:06.306Z,78.7
2022-10-10T01:01:09.652Z,78.9
2022-10-10T01:02:12.742Z,78.9
2022-10-10T01:03:15.530Z,78.9
2022-10-10T01:04:18.602Z,78.9
2022-10-10T01:05:21.666Z,78.8
2022-10-10T01:06:24.738Z,78.6
2022-10-10T01:07:27.454Z,78.7
2022-10-10T01:08:30.585Z,78.7
2022-10-10T01:09:33.584Z,78.7
2022-10-10T01:10:36.176Z,79.1
2022-10-10T01:11:39.923Z,79.1
2022-10-10T01:12:42.995Z,78.9
2022-10-10T01:13:45.906Z,78.9
2022-10-10T01:14:48.956Z,78.9
2022-10-10T01:15:52.452Z,78.9
2022-10-10T01:16:55.269Z,78.8
2022-10-10T01:17:57.980Z,78.8
2022-10-10T01:19:00.044Z,78.8
2022-10-10T01:20:03.471Z,79
2022-10-10T01:21:06.069Z,78.7
2022-10-10T01:22:09.177Z,78.8
2022-10-10T01:23:12.438Z,78.7
2022-10-10T01:24:15.512Z,78.8
2022-10-10T01:25:17.922Z,78.7
2022-10-10T01:26:20.721Z,78.6
2022-10-10T01:27:32.580Z,78.7
2022-10-10T01:28:36.684Z,79
2022-10-10T01:29:39.353Z,78.9
2022-10-10T01:30:42.557Z,78.8
2022-10-10T01:31:46.718Z,78.8
2022-10-10T01:32:51.211Z,79
2022-10-10T01:33:55.400Z,78.9
2022-10-10T01:34:58.116Z,79
2022-10-10T01:36:01.264Z,78.9
2022-10-10T01:37:04.993Z,78.8
2022-10-10T01:38:07.435Z,78.6
2022-10-10T01:39:10.427Z,79
2022-10-10T01:40:13.785Z,79
2022-10-10T01:41:16.793Z,79
2022-10-10T01:42:19.775Z,79
2022-10-10T01:43:23.218Z,79
2022-10-10T01:44:26.749Z,79
2022-10-10T01:45:29.581Z,79.1
2022-10-10T01:46:32.800Z,79
2022-10-10T01:47:36.320Z,78.6
2022-10-10T01:48:39.383Z,78.7
2022-10-10T01:49:42.809Z,79.1
2022-10-10T01:50:46.275Z,79.2
2022-10-10T01:51:49.490Z,79.2
2022-10-10T01:52:54.386Z,79.1
2022-10-10T01:53:58.033Z,79.2
2022-10-10T01:55:01.808Z,79.3
2022-10-10T01:56:04.598Z,79
2022-10-10T01:57:07.748Z,78.9
2022-10-10T01:58:10.334Z,79
2022-10-10T01:59:13.525Z,79.5
2022-10-10T02:00:16.378Z,79.3
2022-10-10T02:01:19.973Z,79.1
2022-10-10T02:02:23.601Z,79.1
2022-10-10T02:03:27.364Z,79.5
2022-10-10T02:04:30.220Z,79.5
2022-10-10T02:05:32.814Z,79.6
2022-10-10T02:06:35.523Z,79.7
2022-10-10T02:07:38.969Z,79.6
2022-10-10T02:08:42.116Z,79.8
2022-10-10T02:09:45.176Z,79.6
2022-10-10T02:10:47.798Z,79.6
2022-10-10T02:11:50.676Z,79.7
2022-10-10T02:12:55.014Z,79.8
2022-10-10T02:13:58.461Z,79.8
2022-10-10T02:15:01.309Z,79.9
2022-10-10T02:16:03.822Z,79.8
2022-10-10T02:17:07.013Z,79.8
2022-10-10T02:18:10.153Z,79.8
2022-10-10T02:19:13.977Z,79.9
2022-10-10T02:20:16.761Z,79.8
2022-10-10T02:21:19.284Z,80.2
2022-10-10T02:22:23.004Z,79.9
2022-10-10T02:23:25.880Z,80.1
2022-10-10T02:24:28.690Z,80
2022-10-10T02:25:31.564Z,79.8
2022-10-10T02:26:34.401Z,79.7
2022-10-10T02:27:37.485Z,80
2022-10-10T02:28:41.113Z,80.3
2022-10-10T02:29:43.798Z,80.4
2022-10-10T02:30:47.405Z,80.8
2022-10-10T02:31:49.714Z,80.4
2022-10-10T02:32:54.026Z,80.2
2022-10-10T02:33:57.099Z,80.3
2022-10-10T02:35:00.972Z,80.2
2022-10-10T02:36:03.402Z,80.2
2022-10-10T02:37:06.640Z,80.3
2022-10-10T02:38:08.789Z,80.1
2022-10-10T02:39:11.328Z,80.6
2022-10-10T02:40:14.614Z,80.6
2022-10-10T02:41:17.700Z,80.6
2022-10-10T02:42:20.333Z,80.6
2022-10-10T02:43:23.203Z,80.5
2022-10-10T02:44:26.360Z,80.7
2022-10-10T02:45:29.165Z,80.5
2022-10-10T02:46:31.894Z,80.8
2022-10-10T02:47:34.424Z,80.9
2022-10-10T02:48:37.906Z,80.8
2022-10-10T02:49:40.686Z,80.6
2022-10-10T02:50:44.373Z,80.4
2022-10-10T02:51:46.788Z,80.7
2022-10-10T02:52:51.835Z,80.8
2022-10-10T02:53:55.732Z,80.5
2022-10-10T02:54:58.735Z,80.9
2022-10-10T02:56:02.082Z,80.9
2022-10-10T02:57:05.234Z,80.8
2022-10-10T02:58:08.039Z,80.7
2022-10-10T02:59:11.108Z,80.5
2022-10-10T03:00:14.114Z,80.6
2022-10-10T03:01:17.170Z,80.8
2022-10-10T03:02:20.056Z,81
2022-10-10T03:03:22.854Z,81
2022-10-10T03:04:26.325Z,81
2022-10-10T03:05:30.079Z,80.6
2022-10-10T03:06:34.264Z,80.9
2022-10-10T03:07:37.702Z,80.9
2022-10-10T03:08:39.939Z,81.1
2022-10-10T03:09:42.922Z,81.1
2022-10-10T03:10:46.630Z,81.1
2022-10-10T03:11:50.124Z,81.3
2022-10-10T03:12:54.167Z,81.1
2022-10-10T03:13:56.771Z,81
2022-10-10T03:15:00.212Z,81
2022-10-10T03:16:02.387Z,81.1
2022-10-10T03:17:05.529Z,81.4
2022-10-10T03:18:08.409Z,81.4
2022-10-10T03:19:11.360Z,81.4
2022-10-10T03:20:14.438Z,81.6
2022-10-10T03:21:17.759Z,81.4
2022-10-10T03:22:21.262Z,81.4
2022-10-10T03:23:24.775Z,81.2
2022-10-10T03:24:27.201Z,81.4
2022-10-10T03:25:29.719Z,81.7
2022-10-10T03:26:32.499Z,81.6
2022-10-10T03:27:35.005Z,81.6
2022-10-10T03:28:37.811Z,81.7
2022-10-10T03:29:40.468Z,81.6
2022-10-10T03:30:43.262Z,82
2022-10-10T03:31:46.246Z,82.1
2022-10-10T03:32:51.012Z,82.1
2022-10-10T03:33:54.304Z,81.9
2022-10-10T03:34:56.818Z,82.1
2022-10-10T03:35:59.649Z,81.9
2022-10-10T03:37:02.541Z,82
2022-10-10T03:38:06.345Z,82.2
2022-10-10T03:39:09.804Z,82.3
2022-10-10T03:40:12.866Z,81.9
2022-10-10T03:41:15.867Z,82.1
2022-10-10T03:42:19.563Z,82.3
2022-10-10T03:43:21.725Z,82.1
2022-10-10T03:44:24.153Z,82.3
2022-10-10T03:45:26.681Z,82.1
2022-10-10T03:46:29.292Z,81.9
2022-10-10T03:47:31.894Z,81.9
2022-10-10T03:48:35.256Z,82
2022-10-10T03:49:38.686Z,82
2022-10-10T03:50:41.408Z,82.3
2022-10-10T03:51:44.576Z,82.3
2022-10-10T03:52:49.189Z,82.3
2022-10-10T03:53:53.464Z,82.4
2022-10-10T03:54:56.606Z,82.6
2022-10-10T03:55:59.673Z,83
2022-10-10T03:57:01.834Z,82.9
2022-10-10T03:58:05.204Z,82.8
2022-10-10T03:59:08.069Z,82.8
2022-10-10T04:00:11.522Z,82.8
2022-10-10T04:01:14.374Z,82.6
2022-10-10T04:02:17.007Z,82.6
2022-10-10T04:03:20.657Z,82.6
2022-10-10T04:04:23.769Z,83
2022-10-10T04:05:27.224Z,83.3
2022-10-10T04:06:30.018Z,83.4
2022-10-10T04:07:33.407Z,83.5
2022-10-10T04:08:37.272Z,83.4
2022-10-10T04:09:41.327Z,83.2
2022-10-10T04:10:44.419Z,83.3
2022-10-10T04:11:47.291Z,83.3
2022-10-10T04:12:51.682Z,83.2
2022-10-10T04:13:55.955Z,83.2
2022-10-10T04:14:58.777Z,83.4
2022-10-10T04:16:00.953Z,83.3
2022-10-10T04:17:04.882Z,83.2
2022-10-10T04:18:08.583Z,83.2
2022-10-10T04:19:11.799Z,83.2
2022-10-10T04:20:14.683Z,83.4
2022-10-10T04:21:17.763Z,83.6
2022-10-10T04:22:21.497Z,83.1
2022-10-10T04:23:24.299Z,83.2
2022-10-10T04:24:27.357Z,83.1
2022-10-10T04:25:31.119Z,83.4
2022-10-10T04:26:34.198Z,83.5
2022-10-10T04:27:37.014Z,83.2
2022-10-10T04:28:39.810Z,83.2
2022-10-10T04:29:43.340Z,83.4
2022-10-10T04:30:46.019Z,83.3
2022-10-10T04:31:49.288Z,83.3
2022-10-10T04:32:53.612Z,83.1
2022-10-10T04:33:56.350Z,83.3
2022-10-10T04:34:59.709Z,83.3
2022-10-10T04:36:02.927Z,83.1
2022-10-10T04:37:06.641Z,83.2
2022-10-10T04:38:09.818Z,83.3
2022-10-10T04:39:12.695Z,83.4
2022-10-10T04:40:15.764Z,83.6
2022-10-10T04:41:19.801Z,83.5
2022-10-10T04:42:22.791Z,83.7
2022-10-10T04:43:26.044Z,83.5
2022-10-10T04:44:28.552Z,83.7
2022-10-10T04:45:38.517Z,83.4
2022-10-10T04:46:41.505Z,83.4
2022-10-10T04:47:44.859Z,83.3
2022-10-10T04:48:47.489Z,83.8
2022-10-10T04:49:50.642Z,83.8
2022-10-10T04:50:54.447Z,83.9
2022-10-10T04:51:57.155Z,83.7
2022-10-10T04:53:00.326Z,83.9
2022-10-10T04:54:03.394Z,84.2
2022-10-10T04:55:06.875Z,84.1
2022-10-10T04:56:10.381Z,84.2
2022-10-10T04:57:14.447Z,84
2022-10-10T04:58:17.884Z,84.1
2022-10-10T04:59:21.305Z,84.2
2022-10-10T05:00:24.373Z,84.1
2022-10-10T05:01:27.649Z,84.2
2022-10-10T05:02:31.131Z,84.3
2022-10-10T05:03:34.310Z,84.1
2022-10-10T05:04:37.693Z,84.1
2022-10-10T05:05:41.144Z,84.2
2022-10-10T05:06:44.024Z,84.3
2022-10-10T05:07:46.821Z,84.3
2022-10-10T05:08:53.372Z,84.4
2022-10-10T05:09:56.567Z,84.5
2022-10-10T05:10:59.092Z,84.4
2022-10-10T05:12:02.896Z,84.5
2022-10-10T05:13:07.125Z,84.5
2022-10-10T05:14:10.481Z,84.3
2022-10-10T05:15:13.463Z,84.7
2022-10-10T05:16:16.721Z,84.4
2022-10-10T05:17:19.514Z,84.4
2022-10-10T05:18:22.364Z,84.1
2022-10-10T05:19:24.892Z,84.2
2022-10-10T05:20:27.326Z,84.3
2022-10-10T05:21:30.140Z,84.3
2022-10-10T05:22:32.866Z,84.2
2022-10-10T05:23:35.584Z,84.5
2022-10-10T05:24:39.201Z,84.6
2022-10-10T05:25:42.540Z,84.2
2022-10-10T05:26:45.994Z,84.1
2022-10-10T05:27:48.935Z,84.4
2022-10-10T05:28:53.046Z,84.6
2022-10-10T05:29:56.206Z,84.5
2022-10-10T05:30:59.653Z,84.2
2022-10-10T05:32:11.000Z,84.3
2022-10-10T05:33:14.263Z,84.4
2022-10-10T05:34:17.826Z,84
2022-10-10T05:35:20.812Z,83.8
2022-10-10T05:36:23.809Z,84.2
2022-10-10T05:37:25.966Z,84.4
2022-10-10T05:38:28.760Z,84.7
2022-10-10T05:39:31.580Z,84.8
2022-10-10T05:40:34.996Z,84.8
2022-10-10T05:41:37.816Z,84.7
2022-10-10T05:42:40.691Z,84.8
2022-10-10T05:43:43.722Z,85
2022-10-10T05:44:47.502Z,85
2022-10-10T05:45:50.686Z,84.8
2022-10-10T05:46:54.498Z,84.7
2022-10-10T05:47:57.286Z,84.7
2022-10-10T05:49:00.161Z,84.8
2022-10-10T05:50:02.955Z,84.6
2022-10-10T05:51:05.468Z,84.6
2022-10-10T05:52:08.754Z,84.7
2022-10-10T05:53:11.340Z,84.4
2022-10-10T05:54:14.474Z,84.3
2022-10-10T05:55:17.543Z,84.4
2022-10-10T05:56:20.256Z,84.5
2022-10-10T05:57:23.885Z,84.5
2022-10-10T05:58:26.546Z,84.4
2022-10-10T05:59:30.288Z,84.6
2022-10-10T06:00:34.127Z,84.3
2022-10-10T06:01:37.128Z,84.4
2022-10-10T06:02:40.631Z,84.5
2022-10-10T06:03:44.086Z,84.3
2022-10-10T06:04:47.085Z,84.4
2022-10-10T06:05:49.701Z,84.5
2022-10-10T06:06:52.499Z,84.7
2022-10-10T06:08:13.860Z,84.7
2022-10-10T06:09:16.956Z,84.4
2022-10-10T06:10:19.630Z,84.1
2022-10-10T06:11:22.714Z,84.2
2022-10-10T06:12:25.784Z,84.1
2022-10-10T06:13:28.574Z,84.1
2022-10-10T06:14:32.015Z,84.4
2022-10-10T06:15:35.519Z,84.5
2022-10-10T06:16:39.549Z,84.1
2022-10-10T06:17:42.065Z,84
2022-10-10T06:18:45.706Z,84.1
2022-10-10T06:19:48.299Z,84.3
2022-10-10T06:20:51.820Z,84.2
2022-10-10T06:21:54.636Z,84
2022-10-10T06:22:57.985Z,83.8
2022-10-10T06:24:00.505Z,83.8
2022-10-10T06:25:03.022Z,84
2022-10-10T06:26:05.640Z,83.7
2022-10-10T06:27:08.223Z,83.7
2022-10-10T06:28:11.882Z,83.6
2022-10-10T06:29:14.850Z,83.6
2022-10-10T06:30:18.513Z,83.4
2022-10-10T06:31:21.864Z,83.4
2022-10-10T06:32:25.705Z,83.5
2022-10-10T06:33:27.872Z,83.4
2022-10-10T06:34:30.942Z,83.4
2022-10-10T06:35:33.756Z,83.5
2022-10-10T06:36:36.850Z,83.2
2022-10-10T06:37:39.705Z,83.4
2022-10-10T06:38:43.415Z,83.2
2022-10-10T06:39:46.575Z,83.2
2022-10-10T06:40:49.575Z,82.9
2022-10-10T06:41:52.448Z,82.7
2022-10-10T06:42:55.970Z,82.8
2022-10-10T06:43:58.869Z,82.8
2022-10-10T06:45:01.940Z,82.9
2022-10-10T06:46:04.975Z,82.8
2022-10-10T06:47:08.136Z,82.6
2022-10-10T06:48:11.610Z,82.9
2022-10-10T06:49:14.050Z,82.7
2022-10-10T06:50:17.112Z,82.3
2022-10-10T06:51:20.110Z,82.3
2022-10-10T06:52:22.783Z,82.1
2022-10-10T06:53:25.582Z,82.2
2022-10-10T06:54:28.751Z,82.3
2022-10-10T06:55:31.807Z,82.1
2022-10-10T06:56:34.693Z,81.9
2022-10-10T06:57:37.946Z,81.8
2022-10-10T06:58:41.385Z,81.6
2022-10-10T06:59:44.569Z,81.7
2022-10-10T07:00:47.918Z,81.6
2022-10-10T07:01:51.469Z,81.6
2022-10-10T07:02:55.625Z,81.6
2022-10-10T07:03:59.156Z,81.6
2022-10-10T07:05:02.060Z,81.3
2022-10-10T07:06:05.507Z,81.2
2022-10-10T07:07:08.941Z,81.2
2022-10-10T07:08:11.998Z,81.1
2022-10-10T07:09:15.079Z,80.9
2022-10-10T07:10:17.610Z,80.8
2022-10-10T07:11:20.945Z,80.9
2022-10-10T07:12:23.949Z,80.7
2022-10-10T07:13:32.427Z,80.4
2022-10-10T07:14:35.542Z,80.3
2022-10-10T07:15:38.491Z,80.3
2022-10-10T07:16:41.473Z,80.2
2022-10-10T07:17:44.721Z,80.4
2022-10-10T07:18:51.744Z,80
2022-10-10T07:19:55.570Z,79.8
2022-10-10T07:20:58.385Z,79.9
2022-10-10T07:22:01.464Z,79.9
2022-10-10T07:23:04.273Z,80
2022-10-10T07:24:06.704Z,79.7
2022-10-10T07:25:09.940Z,79.4
2022-10-10T07:26:12.784Z,79.3
2022-10-10T07:27:15.570Z,79.1
2022-10-10T07:28:18.743Z,79.1
2022-10-10T07:29:22.244Z,79.1
2022-10-10T07:30:25.931Z,79
2022-10-10T07:31:29.306Z,78.9
2022-10-10T07:32:32.470Z,78.9
2022-10-10T07:33:35.896Z,78.8
2022-10-10T07:34:40.024Z,78.6
2022-10-10T07:35:43.901Z,78.2
2022-10-10T07:36:47.014Z,78.1
2022-10-10T07:37:49.258Z,77.8
2022-10-10T07:38:52.187Z,77.9
2022-10-10T07:39:55.496Z,77.9
2022-10-10T07:40:57.750Z,78.1
2022-10-10T07:42:01.215Z,78
2022-10-10T07:43:04.374Z,77.6
2022-10-10T07:44:06.895Z,77.5
2022-10-10T07:45:09.884Z,77.3
2022-10-10T07:46:13.942Z,77.3
2022-10-10T07:47:17.002Z,77.2
2022-10-10T07:48:20.167Z,77
2022-10-10T07:49:23.007Z,77
2022-10-10T07:50:26.643Z,76.5
2022-10-10T07:51:30.136Z,76.5
2022-10-10T07:52:32.850Z,76.3
2022-10-10T07:53:35.403Z,76.2
2022-10-10T07:54:38.579Z,76
2022-10-10T07:55:41.373Z,75.7
2022-10-10T07:56:44.206Z,75.2
2022-10-10T07:57:54.826Z,75.6
2022-10-10T07:58:59.049Z,75.6
2022-10-10T08:00:02.383Z,75.5
2022-10-10T08:01:04.995Z,75
2022-10-10T08:02:09.009Z,74.6
2022-10-10T08:03:13.420Z,74
2022-10-10T08:04:17.133Z,74.2
2022-10-10T08:05:20.026Z,74
2022-10-10T08:06:22.930Z,73.4
2022-10-10T08:07:26.448Z,73.5
2022-10-10T08:08:29.869Z,72.9
2022-10-10T08:09:34.962Z,73.2
2022-10-10T08:10:38.204Z,73
2022-10-10T08:11:40.918Z,72.6
2022-10-10T08:12:43.927Z,72.3
2022-10-10T08:13:47.417Z,72.6
2022-10-10T08:14:50.862Z,72.3
2022-10-10T08:15:53.930Z,71.9
2022-10-10T08:16:57.050Z,71.5
2022-10-10T08:18:00.779Z,71.6
2022-10-10T08:19:04.735Z,71.1
2022-10-10T08:20:08.093Z,71
2022-10-10T08:21:10.423Z,70.9
2022-10-10T08:22:14.283Z,70.8
2022-10-10T08:23:24.856Z,70.5
2022-10-10T08:24:28.029Z,70.7
2022-10-10T08:25:31.374Z,70.3
2022-10-10T08:26:34.370Z,70.3
2022-10-10T08:27:37.629Z,69.6
2022-10-10T08:28:40.932Z,68.9
2022-10-10T08:29:44.913Z,69.1
2022-10-10T08:30:48.085Z,69.7
2022-10-10T08:31:50.958Z,69.4
2022-10-10T08:32:55.019Z,69.3
2022-10-10T08:33:58.484Z,70
2022-10-10T08:35:02.186Z,69.3
2022-10-10T08:36:05.281Z,69.4
2022-10-10T08:37:09.020Z,69.2
2022-10-10T08:38:12.575Z,68.6
2022-10-10T08:39:16.467Z,69
2022-10-10T08:40:19.275Z,69.1
2022-10-10T08:41:22.074Z,68.7
2022-10-10T08:42:25.441Z,68.3
2022-10-10T08:43:28.514Z,68.1
2022-10-10T08:44:31.972Z,68
2022-10-10T08:45:34.863Z,67.3
2022-10-10T08:46:37.767Z,67.2
2022-10-10T08:47:41.209Z,67.2
2022-10-10T08:48:44.483Z,65.8
2022-10-10T08:49:47.558Z,65.8
2022-10-10T08:50:50.623Z,66.7
2022-10-10T08:51:53.890Z,66.4
2022-10-10T08:52:57.365Z,65.5
2022-10-10T08:54:01.003Z,64.5
2022-10-10T08:55:05.003Z,63.7
2022-10-10T08:56:08.399Z,64
2022-10-10T08:57:11.801Z,62.9
2022-10-10T08:58:14.233Z,62.8
2022-10-10T08:59:17.310Z,62.7
2022-10-10T09:00:21.352Z,62.6
2022-10-10T09:01:29.831Z,62.6
2022-10-10T09:03:03.086Z,62.9
2022-10-10T09:04:07.202Z,63.1
2022-10-10T09:05:10.285Z,62.8
2022-10-10T09:06:13.453Z,62.5
2022-10-10T09:07:16.826Z,61.5
2022-10-10T09:08:27.739Z,62.6
2022-10-10T09:09:30.841Z,61.5
2022-10-10T09:10:34.811Z,61.3
2022-10-10T09:11:37.874Z,61.1
2022-10-10T09:12:41.097Z,60.6
2022-10-10T09:13:43.541Z,60.8
2022-10-10T09:14:46.763Z,62
2022-10-10T09:15:49.760Z,63
2022-10-10T09:16:52.342Z,62.6
2022-10-10T09:17:55.719Z,63.8
2022-10-10T09:18:58.897Z,63.8
2022-10-10T09:20:01.971Z,64.3
2022-10-10T09:21:05.422Z,64.4
2022-10-10T09:22:08.372Z,65.1
2022-10-10T09:23:11.224Z,65.4
2022-10-10T09:24:14.964Z,65.5
2022-10-10T09:25:18.191Z,65.7
2022-10-10T09:26:22.002Z,65.1
2022-10-10T09:27:25.243Z,65
2022-10-10T09:28:29.027Z,64.6
2022-10-10T09:29:32.029Z,63.8
2022-10-10T09:30:34.922Z,63.8
2022-10-10T09:31:38.636Z,63.9
2022-10-10T09:32:41.359Z,63.7
2022-10-10T09:33:44.721Z,62.6
2022-10-10T09:34:48.135Z,61.9
2022-10-10T09:35:51.552Z,62.1
2022-10-10T09:36:59.986Z,61
2022-10-10T09:38:03.429Z,61.1
2022-10-10T09:39:06.864Z,60.6
2022-10-10T09:40:09.195Z,60
2022-10-10T09:41:12.368Z,60.4
2022-10-10T09:42:16.482Z,59.3
2022-10-10T09:43:20.022Z,58.6
2022-10-10T09:44:23.383Z,58.7
2022-10-10T09:45:26.051Z,57.8
2022-10-10T09:46:29.834Z,56.5
2022-10-10T09:47:33.209Z,56.8
2022-10-10T09:48:36.312Z,56.1
2022-10-10T09:49:39.772Z,57.1
2022-10-10T09:50:44.790Z,57.6
2022-10-10T09:51:48.159Z,56.5
2022-10-10T09:52:51.618Z,55.4
2022-10-10T09:53:55.619Z,55.1
2022-10-10T09:54:58.229Z,55.4
2022-10-10T09:56:01.043Z,55.3
2022-10-10T09:57:04.616Z,55.4
2022-10-10T09:58:08.771Z,55.6
2022-10-10T09:59:11.495Z,56
2022-10-10T10:00:14.291Z,55.1
2022-10-10T10:01:17.734Z,55.6
2022-10-10T10:02:21.177Z,53.9
2022-10-10T10:03:24.181Z,54.6
2022-10-10T10:04:30.723Z,54.9
2022-10-10T10:05:34.198Z,54.3
2022-10-10T10:06:37.174Z,54.4
2022-10-10T10:07:40.904Z,54.6
2022-10-10T10:08:50.168Z,53.3
2022-10-10T10:09:53.903Z,52.8
2022-10-10T10:10:58.887Z,52.3
2022-10-10T10:12:03.259Z,52.6
2022-10-10T10:13:06.674Z,52.6
2022-10-10T10:14:10.501Z,53.9
2022-10-10T10:15:13.820Z,53.3
2022-10-10T10:16:17.298Z,54.5
2022-10-10T10:17:20.101Z,54.2
2022-10-10T10:18:23.085Z,53.3
2022-10-10T10:19:26.336Z,53.3
2022-10-10T10:20:29.046Z,53.2
2022-10-10T10:21:32.187Z,52.7
2022-10-10T10:22:35.700Z,51.5
2022-10-10T10:23:39.426Z,51.4
2022-10-10T10:24:43.166Z,51
2022-10-10T10:25:46.607Z,50.5
2022-10-10T10:26:49.392Z,51.5
2022-10-10T10:27:52.495Z,50.4
2022-10-10T10:28:56.847Z,50.4
2022-10-10T10:30:00.919Z,50.4
2022-10-10T10:31:04.361Z,50.4
2022-10-10T10:32:07.255Z,49.2
2022-10-10T10:33:10.674Z,49.8
2022-10-10T10:34:14.118Z,49.9
2022-10-10T10:35:17.926Z,49.8
2022-10-10T10:36:21.653Z,49.1
2022-10-10T10:37:24.759Z,49.6
2022-10-10T10:38:28.562Z,49.1
2022-10-10T10:39:31.658Z,50.7
2022-10-10T10:40:35.304Z,51.5
2022-10-10T10:41:38.375Z,51.5
2022-10-10T10:42:41.293Z,52.9
2022-10-10T10:43:43.862Z,52.4
2022-10-10T10:44:47.937Z,51.7
2022-10-10T10:45:51.974Z,50.8
2022-10-10T10:46:54.835Z,51.3
2022-10-10T10:47:58.388Z,50.2
2022-10-10T10:49:01.747Z,50.2
2022-10-10T10:50:04.642Z,49.5
2022-10-10T10:51:08.393Z,50.2
2022-10-10T10:52:11.843Z,50.2
2022-10-10T10:53:14.738Z,51
2022-10-10T10:54:18.519Z,51.4
2022-10-10T10:55:20.948Z,52.2
2022-10-10T10:56:24.913Z,54.1
2022-10-10T10:59:10.615Z,54.8
2022-10-10T11:04:16.031Z,56.3
2022-10-10T11:07:21.447Z,56.5
2022-10-10T11:08:25.287Z,57
2022-10-10T11:09:51.959Z,57
2022-10-10T11:10:55.679Z,57.4
2022-10-10T11:12:05.334Z,57.3
2022-10-10T11:13:08.123Z,57.9
2022-10-10T11:14:11.752Z,58.1
2022-10-10T11:15:15.473Z,57.6
2022-10-10T11:16:50.184Z,57
2022-10-10T11:17:54.358Z,56
2022-10-10T11:18:57.417Z,56
2022-10-10T11:20:00.416Z,54.8
2022-10-10T11:21:04.719Z,55
2022-10-10T11:22:08.090Z,55.9
2022-10-10T11:23:10.756Z,56.5
2022-10-10T11:24:13.616Z,56.8
2022-10-10T11:25:16.985Z,55.8
2022-10-10T11:26:20.444Z,54.9
2022-10-10T11:27:24.085Z,53
2022-10-10T11:28:28.210Z,51.8
2022-10-10T11:29:31.883Z,52
2022-10-10T11:30:35.352Z,51.7
2022-10-10T11:31:38.804Z,51.4
2022-10-10T11:32:41.825Z,50.5
2022-10-10T11:33:45.400Z,49.4
2022-10-10T11:34:48.541Z,49.2
2022-10-10T11:35:51.693Z,50.4
2022-10-10T11:36:54.844Z,51.3
2022-10-10T11:37:58.293Z,51.9
2022-10-10T11:39:01.353Z,52.1
2022-10-10T11:40:04.493Z,53.3
2022-10-10T11:41:07.492Z,55
2022-10-10T11:42:10.368Z,55
2022-10-10T11:43:13.544Z,55.1
2022-10-10T11:44:16.353Z,55
2022-10-10T11:45:19.152Z,54.6
2022-10-10T11:46:22.443Z,54.3
2022-10-10T11:47:25.807Z,54.6
2022-10-10T11:48:28.531Z,54
2022-10-10T11:49:32.313Z,53.5
2022-10-10T11:50:35.476Z,53.9
2022-10-10T11:51:38.681Z,53.8
2022-10-10T11:52:41.944Z,54.2
2022-10-10T11:53:44.748Z,54.3
2022-10-10T11:54:47.814Z,54.3
2022-10-10T11:55:51.264Z,54.7
2022-10-10T11:56:54.362Z,55.5
2022-10-10T11:57:57.800Z,55.4
2022-10-10T11:59:00.693Z,55.4
2022-10-10T12:00:03.694Z,55.5
2022-10-10T12:01:07.325Z,55.9
2022-10-10T12:02:09.858Z,54.8
2022-10-10T12:03:12.686Z,54.1
2022-10-10T12:04:15.645Z,53.9
2022-10-10T12:05:19.408Z,52.9
2022-10-10T12:06:23.316Z,52.3
2022-10-10T12:07:26.809Z,52.2
2022-10-10T12:08:29.621Z,50.5
2022-10-10T12:09:32.900Z,49.8
2022-10-10T12:10:36.012Z,48.4
2022-10-10T12:11:38.904Z,48.8
2022-10-10T12:12:41.899Z,49.6
2022-10-10T12:13:45.241Z,49
2022-10-10T12:14:48.703Z,49.1
2022-10-10T12:15:51.706Z,49.2
2022-10-10T12:16:55.130Z,48.2
2022-10-10T12:17:58.126Z,47.6
2022-10-10T12:19:01.052Z,47.2
2022-10-10T12:20:03.980Z,45.8
2022-10-10T12:21:07.446Z,44.7
2022-10-10T12:22:11.097Z,43.9
2022-10-10T12:23:20.826Z,44.4
2022-10-10T12:24:24.024Z,43.6
2022-10-10T12:25:27.460Z,43.5
2022-10-10T12:26:30.550Z,44.6
2022-10-10T12:27:33.389Z,44.2
2022-10-10T12:28:36.978Z,45
2022-10-10T12:29:40.311Z,46.1
2022-10-10T12:30:43.023Z,47.2
2022-10-10T12:31:46.197Z,48
2022-10-10T12:32:48.737Z,49.2
2022-10-10T12:33:51.702Z,48.4
2022-10-10T12:34:55.148Z,49.7
2022-10-10T12:35:58.054Z,48.7
2022-10-10T12:37:08.612Z,48.8
2022-10-10T12:38:11.813Z,49.3
2022-10-10T12:39:15.545Z,49.1
2022-10-10T12:40:18.814Z,50
2022-10-10T12:41:21.686Z,51.6
2022-10-10T12:42:24.659Z,51.8
2022-10-10T12:43:27.444Z,49.8
2022-10-10T12:44:29.613Z,50.6
2022-10-10T12:45:33.032Z,50.3
2022-10-10T12:46:36.504Z,49.7
2022-10-10T12:48:07.791Z,48.8
2022-10-10T12:49:11.138Z,49.6
2022-10-10T12:50:14.160Z,50.2
2022-10-10T12:51:17.523Z,50.3
2022-10-10T12:52:21.007Z,50.5
2022-10-10T12:53:24.156Z,50.4
2022-10-10T12:54:27.826Z,50.2
2022-10-10T12:55:31.648Z,51
2022-10-10T12:56:34.934Z,50.7
2022-10-10T12:57:37.743Z,51
2022-10-10T12:58:40.348Z,51.1
2022-10-10T12:59:43.416Z,50.9
2022-10-10T13:00:46.140Z,50.5
2022-10-10T13:01:49.413Z,50.6
2022-10-10T13:02:52.781Z,50.1
2022-10-10T13:03:55.756Z,49.5
2022-10-10T13:04:58.469Z,50.4
2022-10-10T13:06:01.927Z,50.2
2022-10-10T13:07:04.997Z,49.4
2022-10-10T13:08:08.836Z,50.1
2022-10-10T13:09:12.271Z,49.3
2022-10-10T13:10:15.912Z,49.2
2022-10-10T13:11:19.094Z,49.8
2022-10-10T13:12:22.486Z,49.5
2022-10-10T13:13:25.372Z,49.5
2022-10-10T13:14:28.163Z,49.6
2022-10-10T13:15:31.865Z,49.8
2022-10-10T13:16:35.704Z,49.8
2022-10-10T13:17:38.981Z,50.3
2022-10-10T13:18:42.125Z,49.9
2022-10-10T13:19:45.486Z,50.5
2022-10-10T13:20:48.505Z,50.1
2022-10-10T13:21:51.517Z,50
2022-10-10T13:22:54.786Z,49.7
2022-10-10T16:00:25.480Z,66.4
2022-10-10T16:01:29.258Z,67.2
2022-10-10T16:02:32.895Z,68.6
2022-10-10T16:03:35.324Z,67.4
2022-10-10T16:04:38.320Z,67.6
2022-10-10T16:05:41.945Z,67
2022-10-10T16:07:31.367Z,67.3
2022-10-10T16:09:29.622Z,67.4
2022-10-10T16:10:33.115Z,68.1
2022-10-10T16:11:35.867Z,66.9
2022-10-10T16:12:38.952Z,67.4
2022-10-10T16:13:42.408Z,67.7
2022-10-10T16:14:45.581Z,69
2022-10-10T16:15:49.679Z,69
2022-10-10T16:16:53.335Z,68.4
2022-10-10T16:17:56.442Z,67.2
2022-10-10T16:18:59.618Z,68.3
2022-10-10T16:20:02.803Z,69.3
2022-10-10T16:21:06.244Z,69.5
2022-10-10T16:22:09.323Z,68.8
2022-10-10T16:23:11.906Z,68
2022-10-10T16:24:15.285Z,69.1
2022-10-10T16:25:26.223Z,68.3
2022-10-10T16:26:29.738Z,68.1
2022-10-10T16:27:33.126Z,68.5
2022-10-10T16:28:36.545Z,69.2
2022-10-10T16:29:39.640Z,69.8
2022-10-10T16:30:42.900Z,69.5
2022-10-10T16:31:46.505Z,70.6
2022-10-10T16:32:49.305Z,70.1
2022-10-10T16:33:52.831Z,70.8
2022-10-10T16:34:55.061Z,70
2022-10-10T16:35:58.216Z,70.6
2022-10-10T16:37:01.652Z,70.7
2022-10-10T16:38:04.375Z,70.7
2022-10-10T16:39:07.322Z,71.4
2022-10-10T16:40:10.498Z,72
2022-10-10T16:41:49.747Z,71.9
2022-10-10T16:42:52.851Z,72.3
2022-10-10T16:43:55.760Z,72.4
2022-10-10T16:44:59.103Z,72.4
2022-10-10T16:46:02.666Z,72.1
2022-10-10T16:47:06.732Z,71.6
2022-10-10T16:48:09.814Z,72.4
2022-10-10T16:49:13.045Z,72.3
2022-10-10T16:50:16.409Z,72.2
2022-10-10T16:51:19.402Z,72.6
2022-10-10T16:52:22.748Z,72.9
2022-10-10T16:53:25.530Z,71.8
2022-10-10T16:54:28.679Z,72.8
2022-10-10T16:55:31.847Z,72.5
2022-10-10T16:56:33.837Z,72.8
2022-10-10T16:57:37.132Z,72.5